createdAt,value
2024-05-09T00:00:39.192Z,1.10
2024-05-09T00:03:42.917Z,1.30
2024-05-09T00:06:44.702Z,1.15
2024-05-09T00:09:48.061Z,1.10
2024-05-09T00:12:49.745Z,1.20
2024-05-09T00:15:51.469Z,1.20
2024-05-09T00:18:53.343Z,1.20
2024-05-09T00:21:55.150Z,1.10
2024-05-09T00:24:56.801Z,1.15
2024-05-09T00:27:58.485Z,1.23
2024-05-09T00:31:00.097Z,1.20
2024-05-09T00:34:01.996Z,1.02
2024-05-09T00:37:04.006Z,1.20
2024-05-09T00:40:09.570Z,1.17
2024-05-09T00:43:14.776Z,1.30
2024-05-09T00:46:17.595Z,1.10
2024-05-09T00:49:19.548Z,1.00
2024-05-09T00:52:21.796Z,0.98
2024-05-09T00:55:23.980Z,1.10
2024-05-09T00:58:28.428Z,1.20
2024-05-09T01:01:30.520Z,1.10
2024-05-09T01:04:32.252Z,1.23
2024-05-09T01:07:34.297Z,1.20
2024-05-09T01:10:37.079Z,1.13
2024-05-09T01:13:38.860Z,1.10
2024-05-09T01:16:40.581Z,1.10
2024-05-09T01:19:43.995Z,1.15
2024-05-09T01:22:47.059Z,1.00
2024-05-09T01:25:48.805Z,1.10
2024-05-09T01:28:50.589Z,1.10
2024-05-09T01:31:52.398Z,1.17
2024-05-09T01:34:54.226Z,1.10
2024-05-09T01:37:55.934Z,1.05
2024-05-09T01:40:58.062Z,1.10
2024-05-09T01:43:59.763Z,0.90
2024-05-09T01:47:01.555Z,1.20
2024-05-09T01:50:06.600Z,1.10
2024-05-09T01:53:13.070Z,1.20
2024-05-09T01:56:15.304Z,1.10
2024-05-09T01:59:17.098Z,1.02
2024-05-09T02:02:19.006Z,1.10
2024-05-09T02:05:20.972Z,1.17
2024-05-09T02:08:22.879Z,1.10
2024-05-09T02:11:24.809Z,1.00
2024-05-09T02:14:26.702Z,1.10
2024-05-09T02:17:28.732Z,1.05
2024-05-09T02:20:36.138Z,1.00
2024-05-09T02:23:38.874Z,1.00
2024-05-09T02:26:40.691Z,1.00
2024-05-09T02:29:45.063Z,1.05
2024-05-09T02:32:46.942Z,1.00
2024-05-09T02:35:48.742Z,1.10
2024-05-09T02:38:50.403Z,1.10
2024-05-09T02:41:52.071Z,1.13
2024-05-09T02:44:53.815Z,1.10
2024-05-09T02:47:55.916Z,0.90
2024-05-09T02:50:57.766Z,1.00
2024-05-09T02:53:59.495Z,1.00
2024-05-09T02:57:01.135Z,1.10
2024-05-09T03:00:03.669Z,0.95
2024-05-09T03:03:09.457Z,1.08
2024-05-09T03:06:12.731Z,1.00
2024-05-09T03:09:14.513Z,1.00
2024-05-09T03:12:16.311Z,0.90
2024-05-09T03:15:18.420Z,1.08
2024-05-09T03:18:20.203Z,1.10
2024-05-09T03:21:22.091Z,1.10
2024-05-09T03:24:23.928Z,1.00
2024-05-09T03:27:25.925Z,1.00
2024-05-09T03:30:38.808Z,1.00
2024-05-09T03:33:44.015Z,1.10
2024-05-09T03:36:45.897Z,1.10
2024-05-09T03:39:47.556Z,1.15
2024-05-09T03:42:49.246Z,1.10
2024-05-09T03:45:50.926Z,1.10
2024-05-09T03:48:52.771Z,1.00
2024-05-09T03:51:54.429Z,1.00
2024-05-09T03:54:56.118Z,1.10
2024-05-09T03:57:57.807Z,1.10
2024-05-09T04:00:59.698Z,1.10
2024-05-09T04:04:01.447Z,0.98
2024-05-09T04:07:03.266Z,0.90
2024-05-09T04:10:08.925Z,1.10
2024-05-09T04:13:11.036Z,1.08
2024-05-09T04:16:12.770Z,1.05
2024-05-09T04:19:14.648Z,0.90
2024-05-09T04:22:17.221Z,0.90
2024-05-09T04:25:18.957Z,1.00
2024-05-09T04:28:20.738Z,0.88
2024-05-09T04:31:22.441Z,1.10
2024-05-09T04:34:24.322Z,1.02
2024-05-09T04:37:26.587Z,1.00
2024-05-09T04:40:33.523Z,1.00
2024-05-09T04:43:37.777Z,0.90
2024-05-09T04:46:42.406Z,1.00
2024-05-09T04:49:46.557Z,1.00
2024-05-09T04:52:49.655Z,0.88
2024-05-09T04:55:51.509Z,1.77
2024-05-09T04:58:53.343Z,1.85
2024-05-09T05:01:56.683Z,1.60
2024-05-09T05:04:58.584Z,1.63
2024-05-09T05:08:00.787Z,1.60
2024-05-09T05:11:03.442Z,1.50
2024-05-09T05:14:05.296Z,1.50
2024-05-09T05:17:07.738Z,1.60
2024-05-09T05:20:15.046Z,1.60
2024-05-09T05:23:20.900Z,1.40
2024-05-09T05:26:22.776Z,1.40
2024-05-09T05:29:24.487Z,1.48
2024-05-09T05:32:26.410Z,1.42
2024-05-09T05:35:28.434Z,1.42
2024-05-09T05:38:30.371Z,1.52
2024-05-09T05:41:32.157Z,1.20
2024-05-09T05:44:34.092Z,1.60
2024-05-09T05:47:37.716Z,1.45
2024-05-09T05:50:39.624Z,1.60
2024-05-09T05:53:41.464Z,1.50
2024-05-09T05:56:43.213Z,1.30
2024-05-09T05:59:44.949Z,1.30
2024-05-09T06:02:46.854Z,1.23
2024-05-09T06:05:48.791Z,1.60
2024-05-09T06:08:50.734Z,1.52
2024-05-09T06:11:52.739Z,1.33
2024-05-09T06:14:54.502Z,1.30
2024-05-09T06:17:56.327Z,1.38
2024-05-09T06:20:58.159Z,1.27
2024-05-09T06:27:01.873Z,1.35
2024-05-09T06:30:03.920Z,1.27
2024-05-09T06:33:06.509Z,1.13
2024-05-09T06:36:08.348Z,1.50
2024-05-09T06:39:10.210Z,1.35
2024-05-09T06:42:11.847Z,1.30
2024-05-09T06:45:15.653Z,1.30
2024-05-09T06:48:19.171Z,1.40
2024-05-09T06:51:21.418Z,1.30
2024-05-09T06:54:23.136Z,1.40
2024-05-09T06:57:24.804Z,1.20
2024-05-09T07:00:34.793Z,1.33
2024-05-09T07:03:41.624Z,1.20
2024-05-09T07:06:43.397Z,1.25
2024-05-09T07:09:45.086Z,1.20
2024-05-09T07:12:46.962Z,1.20
2024-05-09T07:15:48.662Z,1.42
2024-05-09T07:18:54.938Z,1.10
2024-05-09T07:21:58.032Z,1.23
2024-05-09T07:24:59.744Z,1.30
2024-05-09T07:28:01.494Z,1.40
2024-05-09T07:31:03.187Z,1.40
2024-05-09T07:34:05.005Z,1.30
2024-05-09T07:37:12.514Z,1.20
2024-05-09T07:40:24.122Z,1.20
2024-05-09T07:43:30.361Z,1.25
2024-05-09T07:53:34.241Z,1.50
2024-05-09T07:56:03.382Z,1.48
2024-05-09T07:59:05.252Z,1.77
2024-05-09T08:02:07.126Z,1.42
2024-05-09T08:05:09.060Z,1.77
2024-05-09T08:08:11.376Z,2.70
2024-05-09T08:11:13.329Z,3.00
2024-05-09T08:14:15.103Z,2.70
2024-05-09T08:17:16.851Z,2.47
2024-05-09T08:20:26.860Z,1.90
2024-05-09T08:23:32.851Z,1.63
2024-05-09T08:26:34.476Z,1.60
2024-05-09T08:29:37.084Z,1.70
2024-05-09T08:32:40.463Z,1.60
2024-05-09T08:35:42.246Z,1.60
2024-05-09T08:38:44.037Z,1.70
2024-05-09T08:41:49.543Z,1.63
2024-05-09T08:44:52.232Z,1.60
2024-05-09T08:47:55.143Z,1.70
2024-05-09T08:50:59.392Z,1.70
2024-05-09T08:54:01.217Z,1.58
2024-05-09T08:57:04.609Z,1.50
2024-05-09T09:00:12.514Z,1.50
2024-05-09T09:03:24.860Z,1.50
2024-05-09T09:06:27.408Z,1.33
2024-05-09T09:09:29.786Z,1.40
2024-05-09T09:12:32.260Z,1.50
2024-05-09T09:15:34.165Z,1.60
2024-05-09T09:18:36.221Z,1.50
2024-05-09T09:21:37.959Z,1.60
2024-05-09T09:24:40.131Z,1.60
2024-05-09T09:27:41.880Z,1.50
2024-05-09T09:30:44.399Z,1.40
2024-05-09T09:33:46.592Z,1.50
2024-05-09T09:36:49.632Z,1.40
2024-05-09T09:39:51.809Z,1.20
2024-05-09T09:42:57.769Z,1.20
2024-05-09T09:46:00.761Z,1.40
2024-05-09T09:49:02.905Z,1.38
2024-05-09T09:52:07.612Z,1.17
2024-05-09T09:55:11.456Z,1.70
2024-05-09T09:58:15.939Z,1.45
2024-05-09T10:01:17.786Z,1.42
2024-05-09T10:04:19.828Z,1.40
2024-05-09T10:07:22.739Z,1.30
2024-05-09T10:10:31.891Z,3.15
2024-05-09T10:13:35.365Z,1.38
2024-05-09T10:16:43.878Z,1.40
2024-05-09T10:19:47.010Z,1.33
2024-05-09T10:22:50.435Z,1.48
2024-05-09T10:26:03.508Z,1.70
2024-05-09T10:29:17.066Z,1.42
2024-05-09T10:32:19.109Z,1.50
2024-05-09T10:35:22.671Z,1.50
2024-05-09T10:38:24.887Z,1.70
2024-05-09T10:41:26.557Z,1.42
2024-05-09T10:44:28.306Z,1.50
2024-05-09T10:47:30.265Z,1.63
2024-05-09T10:50:34.368Z,1.55
2024-05-09T10:53:44.045Z,1.45
2024-05-09T10:56:46.138Z,1.63
2024-05-09T10:59:52.310Z,1.42
2024-05-09T11:02:55.652Z,1.67
2024-05-09T11:05:58.050Z,1.60
2024-05-09T11:08:59.969Z,1.35
2024-05-09T11:12:03.019Z,1.60
2024-05-09T11:15:05.767Z,1.60
2024-05-09T11:18:08.621Z,1.52
2024-05-09T11:21:13.982Z,1.55
2024-05-09T11:24:15.834Z,1.50
2024-05-09T11:27:23.426Z,1.55
2024-05-09T11:30:31.557Z,1.55
2024-05-09T11:33:40.224Z,1.60
2024-05-09T11:36:42.062Z,1.55
2024-05-09T11:39:44.189Z,1.77
2024-05-09T11:42:48.770Z,1.45
2024-05-09T11:45:52.729Z,1.50
2024-05-09T11:48:54.780Z,1.88
2024-05-09T11:51:56.772Z,1.40
2024-05-09T11:54:58.563Z,1.50
2024-05-09T11:58:00.432Z,1.50
2024-05-09T12:01:02.579Z,1.50
2024-05-09T12:04:04.927Z,1.52
2024-05-09T12:07:09.101Z,1.50
2024-05-09T12:10:16.807Z,1.60
2024-05-09T12:13:21.662Z,1.55
2024-05-09T12:16:23.690Z,1.40
2024-05-09T12:19:25.698Z,1.50
2024-05-09T12:22:27.490Z,1.73
2024-05-09T12:25:29.171Z,1.60
2024-05-09T12:28:30.955Z,1.50
2024-05-09T12:31:32.792Z,1.45
2024-05-09T12:34:34.809Z,1.58
2024-05-09T12:37:36.548Z,1.52
2024-05-09T12:40:39.384Z,1.50
2024-05-09T12:43:41.324Z,1.55
2024-05-09T12:46:43.247Z,1.40
2024-05-09T12:49:45.101Z,1.42
2024-05-09T12:52:46.908Z,1.40
2024-05-09T12:55:56.552Z,1.55
2024-05-09T12:59:01.894Z,1.50
2024-05-09T13:02:04.012Z,1.63
2024-05-09T13:05:06.141Z,1.55
2024-05-09T13:08:07.941Z,1.50
2024-05-09T13:11:09.851Z,1.58
2024-05-09T13:14:11.548Z,1.48
2024-05-09T13:17:13.379Z,1.85
2024-05-09T13:20:25.570Z,1.55
2024-05-09T13:23:31.166Z,1.65
2024-05-09T13:26:32.819Z,1.75
2024-05-09T13:29:34.507Z,1.60
2024-05-09T13:32:36.256Z,1.63
2024-05-09T13:35:38.037Z,1.70
2024-05-09T13:38:39.790Z,1.60
2024-05-09T13:41:41.484Z,1.30
2024-05-09T13:44:43.134Z,1.42
2024-05-09T13:47:45.047Z,1.55
2024-05-09T13:50:47.082Z,1.50
2024-05-09T13:53:48.903Z,1.55
2024-05-09T13:56:52.222Z,1.70
2024-05-09T13:59:54.042Z,1.45
2024-05-09T14:02:55.791Z,1.60
2024-05-09T14:05:57.783Z,1.70
2024-05-09T14:08:59.583Z,1.60
2024-05-09T14:12:01.324Z,1.50
2024-05-09T14:15:02.977Z,1.40
2024-05-09T14:18:05.560Z,1.60
2024-05-09T14:21:07.869Z,1.60
2024-05-09T14:24:09.582Z,1.55
2024-05-09T14:27:11.265Z,1.58
2024-05-09T14:30:22.078Z,1.60
2024-05-09T14:33:28.000Z,1.67
2024-05-09T14:36:29.963Z,1.63
2024-05-09T14:39:31.638Z,1.73
2024-05-09T14:42:33.490Z,1.60
2024-05-09T14:45:35.545Z,1.50
2024-05-09T14:48:38.102Z,1.70
2024-05-09T14:51:40.908Z,1.60
2024-05-09T14:54:42.608Z,1.45
2024-05-09T14:57:44.560Z,1.70
2024-05-09T15:00:50.213Z,1.70
2024-05-09T15:03:54.320Z,1.50
2024-05-09T15:06:56.682Z,1.60
2024-05-09T15:09:58.574Z,1.60
2024-05-09T15:13:00.523Z,1.60
2024-05-09T15:16:02.454Z,1.50
2024-05-09T15:19:04.398Z,1.60
2024-05-09T15:22:07.299Z,1.40
2024-05-09T15:25:09.138Z,1.60
2024-05-09T15:28:11.028Z,1.50
2024-05-09T15:31:12.826Z,1.50
2024-05-09T15:34:14.556Z,1.60
2024-05-09T15:37:16.565Z,1.55
2024-05-09T15:40:26.452Z,1.73
2024-05-09T15:43:37.225Z,1.45
2024-05-09T15:46:39.004Z,1.50
2024-05-09T15:49:41.672Z,1.67
2024-05-09T15:52:43.404Z,1.70
2024-05-09T15:55:45.158Z,1.75
2024-05-09T15:58:46.800Z,1.70
2024-05-09T16:01:48.655Z,1.65
2024-05-09T16:04:50.442Z,1.50
2024-05-09T16:07:52.471Z,1.40
2024-05-09T16:10:54.448Z,1.50
2024-05-09T16:13:56.359Z,1.60
2024-05-09T16:16:58.185Z,1.60
2024-05-09T16:20:00.179Z,1.70
2024-05-09T16:23:04.207Z,1.60
2024-05-09T16:26:06.639Z,1.55
2024-05-09T16:29:08.675Z,1.58
2024-05-09T16:32:10.431Z,1.70
2024-05-09T16:35:12.407Z,1.60
2024-05-09T16:38:14.166Z,1.60
2024-05-09T16:41:15.906Z,1.70
2024-05-09T16:44:18.012Z,1.73
2024-05-09T16:47:20.265Z,1.73
2024-05-09T16:50:28.855Z,1.63
2024-05-09T16:53:33.808Z,1.70
2024-05-09T16:56:37.930Z,1.80
2024-05-09T16:59:40.699Z,1.50
2024-05-09T17:02:44.263Z,1.73
2024-05-09T17:05:47.262Z,1.70
2024-05-09T17:08:49.599Z,1.80
2024-05-09T17:11:51.341Z,1.67
2024-05-09T17:14:53.082Z,1.60
2024-05-09T17:17:55.472Z,1.67
2024-05-09T17:20:57.272Z,1.80
2024-05-09T17:23:59.044Z,1.90
2024-05-09T17:27:01.247Z,1.70
2024-05-09T17:30:06.051Z,1.90
2024-05-09T17:33:09.698Z,2.00
2024-05-09T17:36:12.576Z,1.65
2024-05-09T17:39:14.359Z,1.70
2024-05-09T17:42:16.044Z,1.90
2024-05-09T17:45:17.770Z,1.77
2024-05-09T17:48:19.879Z,1.80
2024-05-09T17:51:21.669Z,1.83
2024-05-09T17:54:23.344Z,1.83
2024-05-09T17:57:26.243Z,1.95
2024-05-09T18:00:37.156Z,2.00
2024-05-09T18:03:43.716Z,1.77
2024-05-09T18:06:45.527Z,1.80
2024-05-09T18:09:47.241Z,1.95
2024-05-09T18:12:49.026Z,1.90
2024-05-09T18:15:50.859Z,1.70
2024-05-09T18:18:52.763Z,1.80
2024-05-09T18:21:54.639Z,1.95
2024-05-09T18:24:56.504Z,2.00
2024-05-09T18:27:58.327Z,1.77
2024-05-09T18:31:00.081Z,1.67
2024-05-09T18:34:02.047Z,2.10
2024-05-09T18:37:04.709Z,1.85
2024-05-09T18:40:11.755Z,1.80
2024-05-09T18:43:13.662Z,2.10
2024-05-09T18:46:15.508Z,1.70
2024-05-09T18:49:17.520Z,1.77
2024-05-09T18:52:19.512Z,1.80
2024-05-09T18:55:21.225Z,1.92
2024-05-09T18:58:23.410Z,1.80
2024-05-09T19:01:25.334Z,1.60
2024-05-09T19:04:27.219Z,1.80
2024-05-09T19:07:28.951Z,2.10
2024-05-09T19:10:34.536Z,1.77
2024-05-09T19:13:37.490Z,1.80
2024-05-09T19:16:39.273Z,2.08
2024-05-09T19:19:41.025Z,1.90
2024-05-09T19:22:42.718Z,2.30
2024-05-09T19:25:44.514Z,1.90
2024-05-09T19:28:46.320Z,1.80
2024-05-09T19:31:48.059Z,2.20
2024-05-09T19:34:49.772Z,1.90
2024-05-09T19:37:52.600Z,2.00
2024-05-09T19:40:54.512Z,2.05
2024-05-09T19:43:56.396Z,2.08
2024-05-09T19:46:58.165Z,2.20
2024-05-09T19:49:59.946Z,2.05
2024-05-09T19:53:01.746Z,2.10
2024-05-09T19:56:03.523Z,2.22
2024-05-09T19:59:05.218Z,2.05
2024-05-09T20:02:07.183Z,2.30
2024-05-09T20:05:09.294Z,2.30
2024-05-09T20:08:11.503Z,2.20
2024-05-09T20:11:14.988Z,2.40
2024-05-09T20:14:16.798Z,2.45
2024-05-09T20:17:18.529Z,2.60
2024-05-09T20:20:28.202Z,2.28
2024-05-09T20:23:37.842Z,2.20
2024-05-09T20:26:39.703Z,2.17
2024-05-09T20:29:41.375Z,2.47
2024-05-09T20:32:43.299Z,2.45
2024-05-09T20:35:45.270Z,2.53
2024-05-09T20:38:46.965Z,2.20
2024-05-09T20:41:48.689Z,2.65
2024-05-09T20:44:51.136Z,2.28
2024-05-09T20:47:53.177Z,2.30
2024-05-09T20:50:55.090Z,2.58
2024-05-09T20:53:56.843Z,2.30
2024-05-09T20:56:58.708Z,2.60
2024-05-09T21:00:00.516Z,2.47
2024-05-09T21:03:02.341Z,3.00
2024-05-09T21:06:04.357Z,2.40
2024-05-09T21:09:06.076Z,2.65
2024-05-09T21:12:07.882Z,2.33
2024-05-09T21:15:09.580Z,2.58
2024-05-09T21:18:11.494Z,3.10
2024-05-09T21:21:13.188Z,3.15
2024-05-09T21:24:14.925Z,3.40
2024-05-09T21:27:16.837Z,3.08
2024-05-09T21:30:27.893Z,2.80
2024-05-09T21:33:39.274Z,2.95
2024-05-09T21:36:41.137Z,2.67
2024-05-09T21:39:43.079Z,2.60
2024-05-09T21:42:45.590Z,2.80
2024-05-09T21:45:47.369Z,2.70
2024-05-09T21:48:49.290Z,2.60
2024-05-09T21:51:51.061Z,2.67
2024-05-09T21:54:53.047Z,3.00
2024-05-09T21:57:56.455Z,2.70
2024-05-09T22:00:58.385Z,2.75
2024-05-09T22:04:00.302Z,2.65
2024-05-09T22:07:04.607Z,2.50
2024-05-09T22:10:12.860Z,3.13
2024-05-09T22:13:21.625Z,2.40
2024-05-09T22:16:24.489Z,2.63
2024-05-09T22:19:26.324Z,2.58
2024-05-09T22:22:28.090Z,2.50
2024-05-09T22:25:30.887Z,2.58
2024-05-09T22:28:33.786Z,2.50
2024-05-09T22:31:35.610Z,2.50
2024-05-09T22:34:37.372Z,2.35
2024-05-09T22:37:39.130Z,2.58
2024-05-09T22:40:47.413Z,2.53
2024-05-09T22:43:51.385Z,2.45
2024-05-09T22:46:53.055Z,2.30
2024-05-09T22:49:54.750Z,2.50
2024-05-09T22:52:56.386Z,2.17
2024-05-09T22:55:58.045Z,2.28
2024-05-09T22:59:00.622Z,2.50
2024-05-09T23:02:03.129Z,2.30
2024-05-09T23:05:05.313Z,2.55
2024-05-09T23:08:08.571Z,2.30
2024-05-09T23:11:10.414Z,2.22
2024-05-09T23:14:12.114Z,2.70
2024-05-09T23:17:13.826Z,2.30
2024-05-09T23:20:21.686Z,2.30
2024-05-09T23:23:30.629Z,2.35
2024-05-09T23:26:32.379Z,2.55
2024-05-09T23:29:34.153Z,2.30
2024-05-09T23:32:35.977Z,2.22
2024-05-09T23:35:38.427Z,2.50
2024-05-09T23:38:41.140Z,2.30
2024-05-09T23:41:42.788Z,2.20
2024-05-09T23:44:44.512Z,2.42
2024-05-09T23:47:46.864Z,2.30
2024-05-09T23:50:48.588Z,2.15
2024-05-09T23:53:50.202Z,2.28
2024-05-09T23:56:51.916Z,2.17
2024-05-09T23:59:53.891Z,2.40
